Terminal Aerodrome Forecast
Issued by NWS

Home | Current Version | Previous Version | Text Only | Print | Product List | Glossary On
Versions: 1 2 3 4 5 6 7 8 9 10 11 12 13 14 15 16 17 18 19 20 21 22 23 24 25 26 27
152
FTAK31 PANC 301738
TAFACD
TAF
PACD 301738Z 3018/3118 13013KT P6SM VCSH BKN030
     FM302000 13016G26KT P6SM BKN030
     FM310300 13028G40KT P6SM -RA BKN020 OVC030
     FM311400 12023G31KT 4SM -RA BR OVC015=

USA.gov is the U.S. government's official web portal to all federal, state and local government web resources and services.